createdAt,value
2023-05-16T00:00:08.962Z,0.00
2023-05-16T00:01:08.939Z,0.00
2023-05-16T00:02:08.977Z,0.00
2023-05-16T00:03:09.009Z,0.00
2023-05-16T00:04:09.006Z,0.00
2023-05-16T00:05:08.913Z,0.00
2023-05-16T00:06:08.887Z,0.00
2023-05-16T00:07:08.870Z,0.00
2023-05-16T00:08:08.860Z,0.00
2023-05-16T00:09:08.858Z,0.00
2023-05-16T00:10:08.846Z,0.00
2023-05-16T00:11:08.864Z,0.00
2023-05-16T00:12:08.839Z,0.00
2023-05-16T00:13:08.817Z,0.00
2023-05-16T00:14:08.815Z,0.00
2023-05-16T00:15:08.790Z,0.00
2023-05-16T00:16:08.812Z,0.00
2023-05-16T00:17:08.850Z,0.00
2023-05-16T00:18:08.817Z,0.00
2023-05-16T00:19:08.969Z,0.00
2023-05-16T00:20:08.736Z,0.00
2023-05-16T00:21:08.741Z,0.00
2023-05-16T00:22:08.719Z,0.00
2023-05-16T00:23:08.721Z,0.00
2023-05-16T00:24:08.700Z,0.00
2023-05-16T00:25:08.715Z,0.00
2023-05-16T00:26:08.690Z,0.00
2023-05-16T00:27:08.678Z,0.00
2023-05-16T00:28:08.666Z,0.00
2023-05-16T00:29:08.653Z,0.00
2023-05-16T00:30:08.644Z,0.00
2023-05-16T00:31:08.621Z,0.00
2023-05-16T00:32:08.738Z,0.00
2023-05-16T00:33:08.729Z,0.00
2023-05-16T00:34:08.639Z,0.00
2023-05-16T00:35:08.582Z,0.00
2023-05-16T00:36:08.569Z,0.00
2023-05-16T00:37:08.573Z,0.00
2023-05-16T00:38:08.563Z,0.00
2023-05-16T00:39:08.551Z,0.00
2023-05-16T00:40:08.549Z,0.00
2023-05-16T00:41:08.519Z,0.00
2023-05-16T00:42:08.532Z,0.00
2023-05-16T00:43:08.499Z,0.00
2023-05-16T00:44:08.484Z,0.00
2023-05-16T00:45:08.468Z,0.00
2023-05-16T00:46:09.517Z,0.00
2023-05-16T00:47:08.471Z,0.00
2023-05-16T00:48:08.488Z,0.00
2023-05-16T00:49:08.439Z,0.00
2023-05-16T00:50:08.427Z,0.00
2023-05-16T00:51:08.444Z,0.00
2023-05-16T00:52:08.424Z,0.00
2023-05-16T00:53:08.399Z,0.00
2023-05-16T00:54:08.395Z,0.00
2023-05-16T00:55:08.385Z,0.00
2023-05-16T00:56:08.384Z,0.00
2023-05-16T00:57:08.362Z,0.00
2023-05-16T00:58:08.353Z,0.00
2023-05-16T00:59:08.338Z,0.00
2023-05-16T01:00:08.332Z,0.00
2023-05-16T01:01:08.373Z,0.00
2023-05-16T01:02:08.306Z,0.00
2023-05-16T01:03:08.379Z,0.00
2023-05-16T01:04:08.450Z,0.00
2023-05-16T01:05:08.278Z,0.00
2023-05-16T01:06:08.276Z,0.00
2023-05-16T01:07:08.276Z,0.00
2023-05-16T01:08:08.262Z,0.00
2023-05-16T01:09:08.232Z,0.00
2023-05-16T01:10:08.263Z,0.00
2023-05-16T01:11:08.226Z,0.00
2023-05-16T01:12:08.215Z,0.00
2023-05-16T01:13:08.221Z,0.00
2023-05-16T01:14:08.191Z,0.00
2023-05-16T01:15:08.181Z,0.00
2023-05-16T01:16:08.180Z,0.00
2023-05-16T01:17:08.163Z,0.00
2023-05-16T01:18:08.198Z,0.00
2023-05-16T01:19:08.345Z,0.00
2023-05-16T01:20:08.162Z,0.00
2023-05-16T01:21:08.116Z,0.00
2023-05-16T01:22:08.096Z,0.00
2023-05-16T01:23:08.089Z,0.00
2023-05-16T01:24:08.116Z,0.00
2023-05-16T01:25:08.078Z,0.00
2023-05-16T01:26:08.062Z,0.00
2023-05-16T01:27:16.318Z,0.00
2023-05-16T01:28:08.029Z,0.00
2023-05-16T01:29:08.050Z,0.00
2023-05-16T01:30:08.017Z,0.00
2023-05-16T01:31:08.060Z,0.00
2023-05-16T01:32:08.040Z,0.00
2023-05-16T01:33:08.060Z,0.00
2023-05-16T01:34:07.989Z,0.00
2023-05-16T01:35:07.959Z,0.00
2023-05-16T01:36:07.964Z,0.00
2023-05-16T01:37:07.946Z,0.00
2023-05-16T01:38:07.945Z,0.00
2023-05-16T01:39:07.927Z,0.00
2023-05-16T01:40:08.038Z,0.00
2023-05-16T01:41:07.894Z,0.00
2023-05-16T01:42:08.902Z,0.00
2023-05-16T01:43:07.891Z,0.00
2023-05-16T01:44:07.905Z,0.00
2023-05-16T01:45:07.884Z,0.00
2023-05-16T01:46:07.857Z,0.00
2023-05-16T01:47:07.941Z,0.00
2023-05-16T01:48:07.905Z,0.00
2023-05-16T01:49:07.823Z,0.00
2023-05-16T01:50:07.807Z,0.00
2023-05-16T01:51:07.801Z,0.00
2023-05-16T01:52:07.819Z,0.00
2023-05-16T01:53:07.790Z,0.00
2023-05-16T01:54:07.790Z,0.00
2023-05-16T01:55:07.762Z,0.00
2023-05-16T01:56:07.756Z,0.00
2023-05-16T01:57:07.755Z,0.00
2023-05-16T01:58:07.724Z,0.00
2023-05-16T01:59:07.722Z,0.00
2023-05-16T02:00:07.718Z,0.00
2023-05-16T02:01:07.739Z,0.00
2023-05-16T02:02:07.702Z,0.00
2023-05-16T02:03:07.794Z,0.00
2023-05-16T02:04:07.780Z,0.00
2023-05-16T02:05:07.648Z,0.00
2023-05-16T02:06:07.655Z,0.00
2023-05-16T02:07:07.639Z,0.00
2023-05-16T02:08:07.627Z,0.00
2023-05-16T02:09:07.623Z,0.00
2023-05-16T02:10:07.604Z,0.00
2023-05-16T02:11:07.605Z,0.00
2023-05-16T02:12:07.588Z,0.00
2023-05-16T02:13:07.578Z,0.00
2023-05-16T02:14:07.559Z,0.00
2023-05-16T02:15:07.548Z,0.00
2023-05-16T02:16:07.661Z,0.00
2023-05-16T02:17:07.560Z,0.00
2023-05-16T02:18:07.594Z,0.00
2023-05-16T02:19:07.623Z,0.00
2023-05-16T02:20:07.492Z,0.00
2023-05-16T02:21:07.586Z,0.00
2023-05-16T02:22:07.499Z,0.00
2023-05-16T02:23:07.496Z,0.00
2023-05-16T02:24:07.467Z,0.00
2023-05-16T02:25:07.478Z,0.00
2023-05-16T02:26:07.624Z,0.00
2023-05-16T02:27:07.434Z,0.00
2023-05-16T02:28:07.424Z,0.00
2023-05-16T02:29:07.417Z,0.00
2023-05-16T02:30:07.428Z,0.00
2023-05-16T02:31:07.403Z,0.00
2023-05-16T02:32:07.390Z,0.00
2023-05-16T02:33:07.503Z,0.00
2023-05-16T02:34:07.368Z,0.00
2023-05-16T02:35:07.369Z,0.00
2023-05-16T02:36:07.356Z,0.00
2023-05-16T02:37:07.324Z,0.00
2023-05-16T02:38:07.337Z,0.00
2023-05-16T02:39:07.318Z,0.00
2023-05-16T02:40:07.325Z,0.00
2023-05-16T02:41:07.286Z,0.00
2023-05-16T02:42:07.279Z,0.00
2023-05-16T02:43:07.265Z,0.00
2023-05-16T02:44:07.278Z,0.00
2023-05-16T02:45:07.240Z,0.00
2023-05-16T02:46:07.309Z,0.00
2023-05-16T02:47:07.228Z,0.00
2023-05-16T02:48:07.264Z,0.00
2023-05-16T02:49:07.232Z,0.00
2023-05-16T02:50:07.189Z,0.00
2023-05-16T02:51:07.188Z,0.00
2023-05-16T02:52:07.173Z,0.00
2023-05-16T02:53:07.181Z,0.00
2023-05-16T02:54:07.165Z,0.00
2023-05-16T02:55:21.132Z,0.00
2023-05-16T02:56:09.133Z,0.00
2023-05-16T02:57:07.117Z,0.00
2023-05-16T02:58:07.132Z,0.00
2023-05-16T02:59:07.099Z,0.00
2023-05-16T03:00:07.098Z,0.00
2023-05-16T03:01:07.133Z,0.00
2023-05-16T03:02:07.106Z,0.00
2023-05-16T03:03:07.085Z,0.00
2023-05-16T03:04:07.227Z,4.00
2023-05-16T03:05:08.034Z,0.00
2023-05-16T03:06:07.036Z,4.00
2023-05-16T03:07:07.034Z,4.00
2023-05-16T03:08:07.006Z,4.00
2023-05-16T03:09:06.994Z,4.00
2023-05-16T03:10:07.006Z,4.00
2023-05-16T03:11:06.970Z,0.00
2023-05-16T03:12:07.247Z,0.00
2023-05-16T03:13:06.953Z,0.00
2023-05-16T03:14:06.943Z,0.00
2023-05-16T03:15:06.944Z,0.00
2023-05-16T03:16:06.961Z,4.00
2023-05-16T03:17:06.947Z,0.00
2023-05-16T03:18:06.924Z,4.00
2023-05-16T03:19:06.957Z,4.00
2023-05-16T03:20:06.884Z,4.00
2023-05-16T03:21:06.863Z,4.00
2023-05-16T03:22:06.872Z,4.00
2023-05-16T03:23:06.843Z,4.00
2023-05-16T03:24:06.875Z,4.00
2023-05-16T03:25:06.832Z,8.00
2023-05-16T03:26:06.826Z,8.00
2023-05-16T03:27:06.822Z,12.00
2023-05-16T03:28:06.807Z,16.00
2023-05-16T03:29:06.791Z,16.00
2023-05-16T03:30:06.778Z,20.00
2023-05-16T03:31:06.906Z,20.00
2023-05-16T03:32:06.802Z,20.00
2023-05-16T03:33:06.778Z,28.00
2023-05-16T03:34:06.733Z,36.00
2023-05-16T03:35:06.728Z,32.00
2023-05-16T03:36:06.721Z,32.00
2023-05-16T03:37:06.711Z,36.00
2023-05-16T03:38:06.694Z,40.00
2023-05-16T03:39:06.681Z,36.00
2023-05-16T03:40:06.688Z,44.00
2023-05-16T03:41:06.717Z,44.00
2023-05-16T03:42:06.651Z,44.00
2023-05-16T03:43:06.645Z,48.00
2023-05-16T03:44:06.637Z,48.00
2023-05-16T03:45:06.640Z,56.00
2023-05-16T03:46:06.685Z,60.00
2023-05-16T03:47:06.639Z,64.00
2023-05-16T03:48:06.637Z,72.00
2023-05-16T03:49:06.577Z,84.00
2023-05-16T03:50:06.602Z,88.00
2023-05-16T03:51:06.564Z,92.00
2023-05-16T03:52:06.552Z,88.00
2023-05-16T03:53:06.540Z,88.00
2023-05-16T03:54:06.551Z,88.00
2023-05-16T03:55:06.549Z,92.00
2023-05-16T03:56:06.516Z,96.00
2023-05-16T03:57:06.520Z,112.00
2023-05-16T03:58:06.493Z,112.00
2023-05-16T03:59:06.504Z,108.00
2023-05-16T04:00:06.478Z,112.00
2023-05-16T04:01:06.470Z,116.00
2023-05-16T04:02:06.515Z,120.00
2023-05-16T04:03:06.466Z,120.00
2023-05-16T04:04:06.448Z,124.00
2023-05-16T04:05:06.505Z,124.00
2023-05-16T04:06:06.483Z,128.00
2023-05-16T04:07:06.412Z,124.00
2023-05-16T04:08:06.410Z,140.00
2023-05-16T04:09:06.408Z,148.00
2023-05-16T04:10:06.377Z,156.00
2023-05-16T04:11:06.363Z,168.00
2023-05-16T04:12:06.350Z,172.00
2023-05-16T04:13:06.376Z,180.00
2023-05-16T04:14:06.379Z,188.00
2023-05-16T04:15:06.310Z,196.00
2023-05-16T04:16:06.308Z,200.00
2023-05-16T04:17:06.344Z,212.00
2023-05-16T04:18:06.357Z,252.00
2023-05-16T04:19:06.361Z,284.00
2023-05-16T04:20:06.276Z,296.00
2023-05-16T04:21:06.257Z,316.00
2023-05-16T04:22:06.265Z,328.00
2023-05-16T04:23:06.252Z,344.00
2023-05-16T04:24:06.225Z,400.00
2023-05-16T04:25:06.221Z,436.00
2023-05-16T04:26:06.204Z,448.00
2023-05-16T04:27:06.211Z,492.00
2023-05-16T04:28:06.185Z,460.00
2023-05-16T04:29:06.183Z,420.00
2023-05-16T04:30:06.167Z,388.00
2023-05-16T04:31:06.164Z,376.00
2023-05-16T04:32:06.222Z,360.00
2023-05-16T04:33:06.191Z,328.00
2023-05-16T04:34:06.123Z,340.00
2023-05-16T04:35:06.150Z,312.00
2023-05-16T04:36:06.134Z,288.00
2023-05-16T04:37:06.106Z,280.00
2023-05-16T04:38:06.088Z,296.00
2023-05-16T04:39:06.081Z,296.00
2023-05-16T04:40:06.073Z,296.00
2023-05-16T04:41:06.063Z,304.00
2023-05-16T04:42:06.062Z,296.00
2023-05-16T04:43:06.035Z,304.00
2023-05-16T04:44:06.030Z,348.00
2023-05-16T04:45:06.017Z,416.00
2023-05-16T04:46:06.069Z,404.00
2023-05-16T04:47:05.997Z,368.00
2023-05-16T04:48:06.029Z,328.00
2023-05-16T04:49:05.977Z,372.00
2023-05-16T04:50:05.971Z,392.00
2023-05-16T04:51:05.972Z,376.00
2023-05-16T04:52:05.951Z,396.00
2023-05-16T04:53:05.942Z,384.00
2023-05-16T04:54:05.922Z,368.00
2023-05-16T04:55:05.928Z,368.00
2023-05-16T04:56:05.919Z,376.00
2023-05-16T04:57:05.916Z,380.00
2023-05-16T04:58:05.904Z,352.00
2023-05-16T04:59:05.878Z,320.00
2023-05-16T05:00:05.896Z,296.00
2023-05-16T05:01:05.860Z,284.00
2023-05-16T05:02:06.006Z,280.00
2023-05-16T05:03:05.857Z,280.00
2023-05-16T05:04:05.829Z,276.00
2023-05-16T05:05:05.896Z,256.00
2023-05-16T05:06:05.838Z,260.00
2023-05-16T05:07:05.803Z,280.00
2023-05-16T05:08:05.792Z,324.00
2023-05-16T05:09:05.795Z,396.00
2023-05-16T05:10:05.779Z,436.00
2023-05-16T05:11:05.755Z,468.00
2023-05-16T05:12:05.748Z,480.00
2023-05-16T05:13:05.732Z,524.00
2023-05-16T05:14:05.743Z,568.00
2023-05-16T05:15:05.731Z,580.00
2023-05-16T05:16:05.698Z,596.00
2023-05-16T05:17:06.781Z,624.00
2023-05-16T05:18:05.885Z,648.00
2023-05-16T05:19:05.721Z,668.00
2023-05-16T05:20:05.671Z,684.00
2023-05-16T05:21:05.658Z,704.00
2023-05-16T05:22:05.643Z,712.00
2023-05-16T05:23:05.649Z,704.00
2023-05-16T05:24:05.630Z,692.00
2023-05-16T05:25:05.607Z,724.00
2023-05-16T05:26:05.598Z,688.00
2023-05-16T05:27:05.596Z,648.00
2023-05-16T05:28:05.608Z,596.00
2023-05-16T05:29:06.301Z,512.00
2023-05-16T05:30:06.560Z,456.00
2023-05-16T05:31:05.560Z,428.00
2023-05-16T05:32:05.637Z,424.00
2023-05-16T05:33:05.596Z,440.00
2023-05-16T05:34:05.529Z,464.00
2023-05-16T05:35:05.520Z,508.00
2023-05-16T05:36:05.533Z,468.00
2023-05-16T05:37:05.513Z,464.00
2023-05-16T05:38:05.500Z,492.00
2023-05-16T05:39:05.469Z,464.00
2023-05-16T05:40:05.465Z,476.00
2023-05-16T05:41:05.452Z,476.00
2023-05-16T05:42:05.456Z,436.00
2023-05-16T05:43:05.432Z,444.00
2023-05-16T05:44:05.423Z,496.00
2023-05-16T05:45:05.414Z,536.00
2023-05-16T05:46:05.417Z,760.00
2023-05-16T05:47:05.406Z,972.00
2023-05-16T05:48:05.476Z,976.00
2023-05-16T05:49:05.372Z,996.00
2023-05-16T05:50:05.367Z,948.00
2023-05-16T05:51:05.364Z,916.00
2023-05-16T05:52:05.353Z,888.00
2023-05-16T05:53:05.334Z,844.00
2023-05-16T05:54:05.325Z,816.00
2023-05-16T05:55:05.324Z,808.00
2023-05-16T05:56:05.311Z,720.00
2023-05-16T05:57:05.294Z,632.00
2023-05-16T05:58:07.170Z,608.00
2023-05-16T05:59:06.272Z,624.00
2023-05-16T06:00:05.316Z,692.00
2023-05-16T06:01:05.258Z,760.00
2023-05-16T06:02:05.278Z,920.00
2023-05-16T06:03:05.258Z,1156.00
2023-05-16T06:04:05.220Z,1364.00
2023-05-16T06:05:05.243Z,1600.00
2023-05-16T06:06:05.260Z,1792.00
2023-05-16T06:07:05.197Z,1984.00
2023-05-16T06:08:05.187Z,2172.00
2023-05-16T06:09:05.169Z,2320.00
2023-05-16T06:10:05.407Z,2484.00
2023-05-16T06:11:05.155Z,2624.00
2023-05-16T06:12:05.140Z,2740.00
2023-05-16T06:13:05.132Z,2876.00
2023-05-16T06:14:05.121Z,2912.00
2023-05-16T06:15:05.127Z,2760.00
2023-05-16T06:16:06.185Z,2700.00
2023-05-16T06:17:05.132Z,2736.00
2023-05-16T06:18:05.156Z,2760.00
2023-05-16T06:19:05.115Z,2612.00
2023-05-16T06:20:05.079Z,2468.00
2023-05-16T06:21:05.062Z,2376.00
2023-05-16T06:22:05.043Z,2292.00
2023-05-16T06:23:05.041Z,2468.00
2023-05-16T06:24:05.035Z,2440.00
2023-05-16T06:25:05.217Z,2520.00
2023-05-16T06:26:05.006Z,2520.00
2023-05-16T06:27:04.994Z,2812.00
2023-05-16T06:28:04.987Z,2864.00
2023-05-16T06:29:04.983Z,2884.00
2023-05-16T06:30:04.964Z,2960.00
2023-05-16T06:31:05.018Z,3048.00
2023-05-16T06:32:04.942Z,3184.00
2023-05-16T06:33:04.998Z,3252.00
2023-05-16T06:34:04.925Z,3284.00
2023-05-16T06:35:04.930Z,3228.00
2023-05-16T06:36:04.936Z,2792.00
2023-05-16T06:37:04.891Z,2432.00
2023-05-16T06:38:04.918Z,2156.00
2023-05-16T06:39:04.891Z,1820.00
2023-05-16T06:40:04.869Z,1564.00
2023-05-16T06:41:04.865Z,1512.00
2023-05-16T06:42:04.854Z,1596.00
2023-05-16T06:43:04.840Z,1660.00
2023-05-16T06:44:04.855Z,1324.00
2023-05-16T06:45:04.829Z,1164.00
2023-05-16T06:46:04.835Z,1112.00
2023-05-16T06:47:04.904Z,1152.00
2023-05-16T06:48:04.847Z,1180.00
2023-05-16T06:49:04.780Z,1072.00
2023-05-16T06:50:04.772Z,1084.00
2023-05-16T06:51:04.773Z,1224.00
2023-05-16T06:52:04.778Z,1244.00
2023-05-16T06:53:04.740Z,1480.00
2023-05-16T06:54:04.727Z,1804.00
2023-05-16T06:55:04.756Z,2024.00
2023-05-16T06:56:04.706Z,2160.00
2023-05-16T06:57:04.717Z,2332.00
2023-05-16T06:58:04.701Z,2516.00
2023-05-16T06:59:04.690Z,2432.00
2023-05-16T07:00:04.674Z,2516.00
2023-05-16T07:01:04.739Z,2900.00
2023-05-16T07:02:04.701Z,3020.00
2023-05-16T07:03:04.769Z,2996.00
2023-05-16T07:04:04.719Z,3148.00
2023-05-16T07:05:04.640Z,3560.00
2023-05-16T07:06:04.622Z,3556.00
2023-05-16T07:07:04.601Z,3660.00
2023-05-16T07:08:07.047Z,3704.00
2023-05-16T07:09:05.579Z,3752.00
2023-05-16T07:10:04.573Z,3932.00
2023-05-16T07:11:04.933Z,3756.00
2023-05-16T07:12:04.549Z,3436.00
2023-05-16T07:13:04.542Z,3320.00
2023-05-16T07:14:04.532Z,3360.00
2023-05-16T07:15:04.535Z,3036.00
2023-05-16T07:16:04.572Z,2548.00
2023-05-16T07:17:04.570Z,2732.00
2023-05-16T07:18:04.565Z,2792.00
2023-05-16T07:19:04.563Z,2764.00
2023-05-16T07:20:05.359Z,2656.00
2023-05-16T07:21:05.454Z,2716.00
2023-05-16T07:22:04.450Z,2944.00
2023-05-16T07:23:04.433Z,3004.00
2023-05-16T07:24:04.420Z,3440.00
2023-05-16T07:25:04.444Z,3612.00
2023-05-16T07:26:04.408Z,3772.00
2023-05-16T07:27:04.423Z,3864.00
2023-05-16T07:28:04.402Z,3844.00
2023-05-16T07:29:04.386Z,3940.00
2023-05-16T07:30:04.384Z,3968.00
2023-05-16T07:31:04.353Z,3992.00
2023-05-16T07:32:04.419Z,3848.00
2023-05-16T07:33:04.368Z,3508.00
2023-05-16T07:34:04.335Z,3168.00
2023-05-16T07:35:04.314Z,2996.00
2023-05-16T07:36:15.346Z,3004.00
2023-05-16T07:37:06.287Z,2816.00
2023-05-16T07:38:04.294Z,2704.00
2023-05-16T07:39:04.272Z,2604.00
2023-05-16T07:40:04.277Z,2552.00
2023-05-16T07:41:04.251Z,2760.00
2023-05-16T07:42:04.232Z,2928.00
2023-05-16T07:43:04.267Z,2880.00
2023-05-16T07:44:04.246Z,3084.00
2023-05-16T07:45:04.204Z,3144.00
2023-05-16T07:46:04.408Z,2888.00
2023-05-16T07:47:04.182Z,3108.00
2023-05-16T07:48:04.243Z,3412.00
2023-05-16T07:49:04.162Z,3420.00
2023-05-16T07:50:04.160Z,3312.00
2023-05-16T07:51:04.143Z,3556.00
2023-05-16T07:52:04.152Z,3596.00
2023-05-16T07:53:04.146Z,3580.00
2023-05-16T07:54:04.102Z,3396.00
2023-05-16T07:55:04.105Z,3284.00
2023-05-16T07:56:04.090Z,3588.00
2023-05-16T07:57:04.093Z,3800.00
2023-05-16T07:58:04.082Z,4088.00
2023-05-16T07:59:04.085Z,4104.00
2023-05-16T08:00:04.060Z,3860.00
2023-05-16T08:01:04.035Z,3700.00
2023-05-16T08:02:04.085Z,3588.00
2023-05-16T08:03:04.133Z,3520.00
2023-05-16T08:04:04.067Z,3544.00
2023-05-16T08:05:04.069Z,4128.00
2023-05-16T08:06:04.057Z,4156.00
2023-05-16T08:07:03.992Z,4276.00
2023-05-16T08:08:04.218Z,4236.00
2023-05-16T08:09:03.971Z,4252.00
2023-05-16T08:10:03.961Z,4348.00
2023-05-16T08:11:03.969Z,4424.00
2023-05-16T08:12:03.989Z,4444.00
2023-05-16T08:13:03.932Z,4512.00
2023-05-16T08:14:03.927Z,4708.00
2023-05-16T08:15:03.903Z,4936.00
2023-05-16T08:16:03.908Z,4904.00
2023-05-16T08:17:03.881Z,4960.00
2023-05-16T08:18:03.913Z,5044.00
2023-05-16T08:19:03.963Z,5320.00
2023-05-16T08:20:03.847Z,5636.00
2023-05-16T08:21:03.849Z,5776.00
2023-05-16T08:22:03.834Z,5676.00
2023-05-16T08:23:03.826Z,5516.00
2023-05-16T08:24:03.800Z,5492.00
2023-05-16T08:25:03.811Z,5352.00
2023-05-16T08:26:03.798Z,5248.00
2023-05-16T08:27:03.792Z,5300.00
2023-05-16T08:28:03.777Z,5384.00
2023-05-16T08:29:03.769Z,5084.00
2023-05-16T08:30:03.762Z,4748.00
2023-05-16T08:31:03.792Z,4720.00
2023-05-16T08:32:03.740Z,4588.00
2023-05-16T08:33:03.921Z,4588.00
2023-05-16T08:34:03.717Z,4464.00
2023-05-16T08:35:03.712Z,4404.00
2023-05-16T08:36:03.693Z,4500.00
2023-05-16T08:37:03.689Z,4504.00
2023-05-16T08:38:03.657Z,4532.00
2023-05-16T08:39:03.687Z,4720.00
2023-05-16T08:40:03.661Z,4924.00
2023-05-16T08:41:03.639Z,4968.00
2023-05-16T08:42:03.623Z,5004.00
2023-05-16T08:43:03.625Z,5108.00
2023-05-16T08:44:03.614Z,5128.00
2023-05-16T08:45:03.592Z,5160.00
2023-05-16T08:46:03.579Z,5224.00
2023-05-16T08:47:03.623Z,5252.00
2023-05-16T08:48:03.607Z,5376.00
2023-05-16T08:49:03.556Z,5504.00
2023-05-16T08:50:03.539Z,5672.00
2023-05-16T08:51:03.526Z,5784.00
2023-05-16T08:52:03.515Z,5604.00
2023-05-16T08:53:03.518Z,5564.00
2023-05-16T08:54:03.521Z,5500.00
2023-05-16T08:56:04.474Z,5424.00
2023-05-16T08:57:03.462Z,5464.00
2023-05-16T08:58:03.480Z,5428.00
2023-05-16T08:59:03.452Z,5424.00
2023-05-16T09:00:03.433Z,5564.00
2023-05-16T09:01:03.465Z,5720.00
2023-05-16T09:02:03.417Z,5736.00
2023-05-16T09:03:03.467Z,6080.00
2023-05-16T09:04:03.494Z,6536.00
2023-05-16T09:05:03.410Z,7352.00
2023-05-16T09:06:03.898Z,7392.00
2023-05-16T09:07:03.376Z,6120.00
2023-05-16T09:08:03.366Z,5748.00
2023-05-16T09:09:03.362Z,5500.00
2023-05-16T09:10:03.328Z,4968.00
2023-05-16T09:11:03.314Z,5044.00
2023-05-16T09:12:03.320Z,5132.00
2023-05-16T09:13:03.312Z,5104.00
2023-05-16T09:14:03.292Z,5044.00
2023-05-16T09:15:03.325Z,5224.00
2023-05-16T09:16:03.289Z,5624.00
2023-05-16T09:17:03.384Z,5960.00
2023-05-16T09:18:03.402Z,6008.00
2023-05-16T09:19:03.347Z,6448.00
2023-05-16T09:20:03.245Z,6380.00
2023-05-16T09:21:03.245Z,6504.00
2023-05-16T09:22:03.215Z,6496.00
2023-05-16T09:23:03.211Z,6572.00
2023-05-16T09:24:03.186Z,5760.00
2023-05-16T09:25:03.178Z,6016.00
2023-05-16T09:26:03.185Z,6020.00
2023-05-16T09:27:03.173Z,6308.00
2023-05-16T09:28:03.813Z,6768.00
2023-05-16T09:29:03.152Z,7300.00
2023-05-16T09:30:03.419Z,7240.00
2023-05-16T09:31:03.150Z,7752.00
2023-05-16T09:32:03.115Z,6768.00
2023-05-16T09:33:03.249Z,6584.00
2023-05-16T09:34:03.087Z,6584.00
2023-05-16T09:35:03.106Z,6036.00
2023-05-16T09:36:03.071Z,6036.00
2023-05-16T09:37:03.052Z,5964.00
2023-05-16T09:38:03.041Z,5588.00
2023-05-16T09:39:03.062Z,5516.00
2023-05-16T09:40:03.044Z,5296.00
2023-05-16T09:41:03.022Z,4984.00
2023-05-16T09:42:02.997Z,4864.00
2023-05-16T09:43:03.011Z,5064.00
2023-05-16T09:44:03.003Z,5136.00
2023-05-16T09:45:03.066Z,5628.00
2023-05-16T09:46:02.984Z,5140.00
2023-05-16T09:47:02.947Z,5852.00
2023-05-16T09:48:03.002Z,6416.00
2023-05-16T09:49:02.954Z,6668.00
2023-05-16T09:50:02.916Z,6444.00
2023-05-16T09:51:03.567Z,5264.00
2023-05-16T09:52:02.903Z,6136.00
2023-05-16T09:53:02.895Z,6276.00
2023-05-16T09:54:02.889Z,6280.00
2023-05-16T09:55:02.871Z,5316.00
2023-05-16T09:56:02.878Z,4788.00
2023-05-16T09:57:03.311Z,4464.00
2023-05-16T09:58:03.856Z,4364.00
2023-05-16T09:59:02.823Z,5096.00
2023-05-16T10:00:02.812Z,5452.00
2023-05-16T10:01:02.807Z,5360.00
2023-05-16T10:02:02.812Z,5428.00
2023-05-16T10:03:04.836Z,5600.00
2023-05-16T10:04:03.840Z,5248.00
2023-05-16T10:05:03.572Z,5352.00
2023-05-16T10:06:02.762Z,5392.00
2023-05-16T10:07:02.968Z,4516.00
2023-05-16T10:08:02.742Z,6740.00
2023-05-16T10:09:03.226Z,6628.00
2023-05-16T10:10:02.702Z,6660.00
2023-05-16T10:11:02.695Z,7332.00
2023-05-16T10:12:02.698Z,5336.00
2023-05-16T10:13:02.678Z,6964.00
2023-05-16T10:14:02.682Z,7560.00
2023-05-16T10:15:02.661Z,7304.00
2023-05-16T10:16:02.642Z,6884.00
2023-05-16T10:17:02.656Z,6860.00
2023-05-16T10:18:02.622Z,8228.00
2023-05-16T10:19:02.638Z,6548.00
2023-05-16T10:20:02.600Z,11216.00
2023-05-16T10:21:02.603Z,9080.00
2023-05-16T10:22:02.594Z,13356.00
2023-05-16T10:23:02.606Z,6088.00
2023-05-16T10:24:02.561Z,6020.00
2023-05-16T10:25:02.548Z,6064.00
2023-05-16T10:26:02.576Z,5504.00
2023-05-16T10:27:02.528Z,4896.00
2023-05-16T10:28:02.543Z,16832.00
2023-05-16T10:29:02.506Z,18560.00
2023-05-16T10:30:02.499Z,22400.00
2023-05-16T10:31:02.502Z,26880.00
2023-05-16T10:32:02.554Z,29440.00
2023-05-16T10:33:02.581Z,28992.00
2023-05-16T10:34:02.485Z,9520.00
2023-05-16T10:35:02.474Z,11488.00
2023-05-16T10:36:02.459Z,5372.00
2023-05-16T10:37:02.440Z,4908.00
2023-05-16T10:38:02.425Z,5276.00
2023-05-16T10:39:02.535Z,6348.00
2023-05-16T10:40:02.413Z,12348.00
2023-05-16T10:41:02.388Z,22720.00
2023-05-16T10:42:02.372Z,22528.00
2023-05-16T10:43:02.368Z,26464.00
2023-05-16T10:44:02.349Z,25664.00
2023-05-16T10:45:05.625Z,24640.00
2023-05-16T10:46:03.371Z,23936.00
2023-05-16T10:47:02.323Z,23200.00
2023-05-16T10:48:02.381Z,22528.00
2023-05-16T10:49:02.310Z,20512.00
2023-05-16T10:50:02.298Z,22496.00
2023-05-16T10:51:02.280Z,21440.00
2023-05-16T10:52:02.275Z,6520.00
2023-05-16T10:53:02.257Z,24320.00
2023-05-16T10:54:02.279Z,27520.00
2023-05-16T10:55:02.450Z,29376.00
2023-05-16T10:56:02.249Z,7784.00
2023-05-16T10:57:02.221Z,28352.00
2023-05-16T10:58:02.227Z,6492.00
2023-05-16T10:59:02.214Z,5508.00
2023-05-16T11:00:02.378Z,7044.00
2023-05-16T11:01:02.215Z,3804.00
2023-05-16T11:02:02.187Z,21664.00
2023-05-16T11:03:02.229Z,5636.00
2023-05-16T11:04:02.692Z,21056.00
2023-05-16T11:05:02.145Z,21856.00
2023-05-16T11:06:02.133Z,22752.00
2023-05-16T11:07:02.130Z,22432.00
2023-05-16T11:08:02.136Z,17696.00
2023-05-16T11:09:02.106Z,21440.00
2023-05-16T11:10:02.092Z,21312.00
2023-05-16T11:11:02.161Z,22400.00
2023-05-16T11:12:02.082Z,22464.00
2023-05-16T11:13:02.077Z,4804.00
2023-05-16T11:14:02.082Z,14212.00
2023-05-16T11:15:02.046Z,5052.00
2023-05-16T11:16:02.031Z,5900.00
2023-05-16T11:17:02.068Z,7748.00
2023-05-16T11:18:02.185Z,18208.00
2023-05-16T11:19:02.035Z,24448.00
2023-05-16T11:20:01.998Z,22624.00
2023-05-16T11:21:01.992Z,22016.00
2023-05-16T11:22:01.982Z,12052.00
2023-05-16T11:23:01.966Z,21568.00
2023-05-16T11:24:01.959Z,21248.00
2023-05-16T11:25:01.966Z,21696.00
2023-05-16T11:26:01.936Z,23456.00
2023-05-16T11:27:01.980Z,25664.00
2023-05-16T11:28:01.928Z,27552.00
2023-05-16T11:29:01.931Z,23392.00
2023-05-16T11:30:03.626Z,22848.00
2023-05-16T11:31:02.919Z,23872.00
2023-05-16T11:32:02.097Z,5824.00
2023-05-16T11:33:01.953Z,8648.00
2023-05-16T11:34:02.862Z,4000.00
2023-05-16T11:35:01.847Z,4000.00
2023-05-16T11:36:14.672Z,25152.00
2023-05-16T11:37:03.830Z,25856.00
2023-05-16T11:38:01.816Z,28544.00
2023-05-16T11:39:01.805Z,32288.00
2023-05-16T11:40:01.930Z,34912.00
2023-05-16T11:41:01.795Z,35904.00
2023-05-16T11:42:01.774Z,33792.00
2023-05-16T11:43:01.919Z,17696.00
2023-05-16T11:44:01.751Z,4036.00
2023-05-16T11:45:01.757Z,4424.00
2023-05-16T11:46:01.750Z,5088.00
2023-05-16T11:47:01.771Z,4972.00
2023-05-16T11:48:01.767Z,4572.00
2023-05-16T11:49:01.715Z,6884.00
2023-05-16T11:50:01.713Z,11228.00
2023-05-16T11:51:01.697Z,16928.00
2023-05-16T11:52:01.705Z,34816.00
2023-05-16T11:53:01.662Z,14272.00
2023-05-16T11:54:01.661Z,4860.00
2023-05-16T11:55:01.672Z,4512.00
2023-05-16T11:56:01.636Z,4088.00
2023-05-16T11:57:01.633Z,4080.00
2023-05-16T11:58:01.638Z,4048.00
2023-05-16T11:59:01.637Z,7268.00
2023-05-16T12:00:01.630Z,6100.00
2023-05-16T12:01:01.587Z,16896.00
2023-05-16T12:02:01.578Z,8676.00
2023-05-16T12:03:01.668Z,5228.00
2023-05-16T12:04:01.721Z,4196.00
2023-05-16T12:05:01.576Z,4512.00
2023-05-16T12:06:01.537Z,29152.00
2023-05-16T12:07:01.531Z,28736.00
2023-05-16T12:08:01.510Z,26048.00
2023-05-16T12:09:01.517Z,23520.00
2023-05-16T12:10:01.507Z,21792.00
2023-05-16T12:11:01.505Z,20736.00
2023-05-16T12:12:01.483Z,20160.00
2023-05-16T12:13:01.483Z,19968.00
2023-05-16T12:14:01.489Z,20128.00
2023-05-16T12:15:01.701Z,20800.00
2023-05-16T12:16:01.443Z,23136.00
2023-05-16T12:17:01.512Z,4284.00
2023-05-16T12:18:01.472Z,3772.00
2023-05-16T12:19:01.457Z,3872.00
2023-05-16T12:20:01.401Z,26464.00
2023-05-16T12:21:02.087Z,4400.00
2023-05-16T12:22:01.378Z,4308.00
2023-05-16T12:23:01.376Z,4628.00
2023-05-16T12:24:01.358Z,4152.00
2023-05-16T12:25:01.350Z,3848.00
2023-05-16T12:26:01.346Z,3736.00
2023-05-16T12:27:01.343Z,4052.00
2023-05-16T12:28:01.326Z,5176.00